sensor_id;sensor_type;location;lat;lon;timestamp;pressure;altitude;pressure_sealevel;temperature
19948;BMP180;10135;50.702;7.276;2023-07-31T05:00:35;99002.00;;;22.20
19948;BMP180;10135;50.702;7.276;2023-07-31T05:02:50;99007.00;;;22.20
19948;BMP180;10135;50.702;7.276;2023-07-31T05:05:24;99021.00;;;22.20
19948;BMP180;10135;50.702;7.276;2023-07-31T05:07:27;99009.00;;;22.20
19948;BMP180;10135;50.702;7.276;2023-07-31T05:09:49;99009.00;;;22.20
19948;BMP180;10135;50.702;7.276;2023-07-31T05:12:10;99001.00;;;22.20
19948;BMP180;10135;50.702;7.276;2023-07-31T05:14:29;99002.00;;;22.20
19948;BMP180;10135;50.702;7.276;2023-07-31T05:16:50;98993.00;;;22.20
19948;BMP180;10135;50.702;7.276;2023-07-31T05:18:54;98998.00;;;22.20
19948;BMP180;10135;50.702;7.276;2023-07-31T05:21:04;98999.00;;;22.20
19948;BMP180;10135;50.702;7.276;2023-07-31T05:23:05;99001.00;;;22.20
19948;BMP180;10135;50.702;7.276;2023-07-31T05:25:06;98988.00;;;22.20
19948;BMP180;10135;50.702;7.276;2023-07-31T05:27:07;98982.00;;;22.20
19948;BMP180;10135;50.702;7.276;2023-07-31T05:29:07;98984.00;;;22.20
19948;BMP180;10135;50.702;7.276;2023-07-31T05:31:08;98987.00;;;22.20
19948;BMP180;10135;50.702;7.276;2023-07-31T05:33:08;98977.00;;;22.20
19948;BMP180;10135;50.702;7.276;2023-07-31T05:35:09;98979.00;;;22.20
19948;BMP180;10135;50.702;7.276;2023-07-31T05:37:10;98980.00;;;22.30
19948;BMP180;10135;50.702;7.276;2023-07-31T05:39:15;98980.00;;;22.30
19948;BMP180;10135;50.702;7.276;2023-07-31T05:41:15;98975.00;;;22.30
19948;BMP180;10135;50.702;7.276;2023-07-31T05:43:16;98978.00;;;22.30
19948;BMP180;10135;50.702;7.276;2023-07-31T05:45:17;98976.00;;;22.30
19948;BMP180;10135;50.702;7.276;2023-07-31T05:47:18;98969.00;;;22.30
19948;BMP180;10135;50.702;7.276;2023-07-31T05:49:18;98975.00;;;22.30
19948;BMP180;10135;50.702;7.276;2023-07-31T05:51:19;98967.00;;;22.30
19948;BMP180;10135;50.702;7.276;2023-07-31T05:53:19;98973.00;;;22.30
19948;BMP180;10135;50.702;7.276;2023-07-31T05:55:20;98959.00;;;22.30
19948;BMP180;10135;50.702;7.276;2023-07-31T05:57:21;98959.00;;;22.30
19948;BMP180;10135;50.702;7.276;2023-07-31T05:59:22;98958.00;;;22.30
19948;BMP180;10135;50.702;7.276;2023-07-31T06:01:22;98951.00;;;22.30
19948;BMP180;10135;50.702;7.276;2023-07-31T06:03:23;98946.00;;;22.30
19948;BMP180;10135;50.702;7.276;2023-07-31T06:05:24;98956.00;;;22.30
19948;BMP180;10135;50.702;7.276;2023-07-31T06:07:25;98953.00;;;22.30
19948;BMP180;10135;50.702;7.276;2023-07-31T06:09:25;98947.00;;;22.40
19948;BMP180;10135;50.702;7.276;2023-07-31T06:11:26;98943.00;;;22.40
19948;BMP180;10135;50.702;7.276;2023-07-31T06:13:27;98939.00;;;22.40
19948;BMP180;10135;50.702;7.276;2023-07-31T06:15:27;98947.00;;;22.30
19948;BMP180;10135;50.702;7.276;2023-07-31T06:17:28;98943.00;;;22.30
19948;BMP180;10135;50.702;7.276;2023-07-31T06:19:30;98943.00;;;22.30
19948;BMP180;10135;50.702;7.276;2023-07-31T06:21:30;98940.00;;;22.30
19948;BMP180;10135;50.702;7.276;2023-07-31T06:23:31;98939.00;;;22.30
19948;BMP180;10135;50.702;7.276;2023-07-31T06:25:33;98935.00;;;22.30
19948;BMP180;10135;50.702;7.276;2023-07-31T06:27:34;98939.00;;;22.30
19948;BMP180;10135;50.702;7.276;2023-07-31T06:29:35;98945.00;;;22.30
19948;BMP180;10135;50.702;7.276;2023-07-31T06:31:35;98948.00;;;22.30
19948;BMP180;10135;50.702;7.276;2023-07-31T06:33:36;98940.00;;;22.20
19948;BMP180;10135;50.702;7.276;2023-07-31T06:35:36;98938.00;;;22.20
19948;BMP180;10135;50.702;7.276;2023-07-31T06:37:37;98942.00;;;22.20
19948;BMP180;10135;50.702;7.276;2023-07-31T06:39:40;98940.00;;;22.10
19948;BMP180;10135;50.702;7.276;2023-07-31T06:41:42;98940.00;;;22.10
19948;BMP180;10135;50.702;7.276;2023-07-31T06:43:43;98937.00;;;22.00
19948;BMP180;10135;50.702;7.276;2023-07-31T06:45:44;98939.00;;;22.00
19948;BMP180;10135;50.702;7.276;2023-07-31T06:47:44;98926.00;;;22.00
19948;BMP180;10135;50.702;7.276;2023-07-31T06:49:45;98933.00;;;22.00
19948;BMP180;10135;50.702;7.276;2023-07-31T06:51:46;98928.00;;;21.90
19948;BMP180;10135;50.702;7.276;2023-07-31T06:53:46;98930.00;;;21.90
19948;BMP180;10135;50.702;7.276;2023-07-31T06:55:47;98937.00;;;21.90
19948;BMP180;10135;50.702;7.276;2023-07-31T06:57:50;98929.00;;;21.90
19948;BMP180;10135;50.702;7.276;2023-07-31T06:59:51;98928.00;;;21.90
19948;BMP180;10135;50.702;7.276;2023-07-31T07:01:51;98936.00;;;21.90
19948;BMP180;10135;50.702;7.276;2023-07-31T07:03:52;98939.00;;;21.80
19948;BMP180;10135;50.702;7.276;2023-07-31T07:05:53;98934.00;;;21.80
19948;BMP180;10135;50.702;7.276;2023-07-31T07:07:54;98942.00;;;21.80
19948;BMP180;10135;50.702;7.276;2023-07-31T07:09:55;98941.00;;;21.80
19948;BMP180;10135;50.702;7.276;2023-07-31T07:11:55;98934.00;;;21.90
19948;BMP180;10135;50.702;7.276;2023-07-31T07:13:56;98920.00;;;21.90
19948;BMP180;10135;50.702;7.276;2023-07-31T07:15:56;98931.00;;;21.90
19948;BMP180;10135;50.702;7.276;2023-07-31T07:17:57;98921.00;;;21.90
19948;BMP180;10135;50.702;7.276;2023-07-31T07:19:59;98929.00;;;21.90
19948;BMP180;10135;50.702;7.276;2023-07-31T07:21:59;98929.00;;;21.90
19948;BMP180;10135;50.702;7.276;2023-07-31T07:24:02;98920.00;;;22.00
19948;BMP180;10135;50.702;7.276;2023-07-31T07:26:03;98916.00;;;22.00
19948;BMP180;10135;50.702;7.276;2023-07-31T07:28:04;98918.00;;;22.00
19948;BMP180;10135;50.702;7.276;2023-07-31T07:30:05;98909.00;;;22.10
19948;BMP180;10135;50.702;7.276;2023-07-31T07:32:21;98908.00;;;22.10
19948;BMP180;10135;50.702;7.276;2023-07-31T07:34:34;98903.00;;;22.10
19948;BMP180;10135;50.702;7.276;2023-07-31T07:36:37;98903.00;;;22.20
19948;BMP180;10135;50.702;7.276;2023-07-31T07:38:58;98910.00;;;22.20
19948;BMP180;10135;50.702;7.276;2023-07-31T07:41:20;98904.00;;;22.20
19948;BMP180;10135;50.702;7.276;2023-07-31T07:43:27;98909.00;;;22.30
19948;BMP180;10135;50.702;7.276;2023-07-31T07:45:27;98914.00;;;22.20
19948;BMP180;10135;50.702;7.276;2023-07-31T07:47:51;98916.00;;;22.20
19948;BMP180;10135;50.702;7.276;2023-07-31T07:50:18;98921.00;;;22.30
19948;BMP180;10135;50.702;7.276;2023-07-31T07:52:24;98915.00;;;22.30
19948;BMP180;10135;50.702;7.276;2023-07-31T07:54:37;98904.00;;;22.20
19948;BMP180;10135;50.702;7.276;2023-07-31T07:56:40;98911.00;;;22.30
19948;BMP180;10135;50.702;7.276;2023-07-31T07:58:44;98913.00;;;22.20
19948;BMP180;10135;50.702;7.276;2023-07-31T08:01:08;98901.00;;;22.20
19948;BMP180;10135;50.702;7.276;2023-07-31T08:03:23;98905.00;;;22.20
19948;BMP180;10135;50.702;7.276;2023-07-31T08:05:26;98905.00;;;22.20
19948;BMP180;10135;50.702;7.276;2023-07-31T08:07:27;98920.00;;;22.10
19948;BMP180;10135;50.702;7.276;2023-07-31T08:09:27;98921.00;;;22.10
19948;BMP180;10135;50.702;7.276;2023-07-31T08:11:28;98914.00;;;22.10
19948;BMP180;10135;50.702;7.276;2023-07-31T08:13:29;98920.00;;;22.00
19948;BMP180;10135;50.702;7.276;2023-07-31T08:15:30;98916.00;;;22.00
19948;BMP180;10135;50.702;7.276;2023-07-31T08:17:30;98915.00;;;22.00
19948;BMP180;10135;50.702;7.276;2023-07-31T08:19:31;98915.00;;;22.00
19948;BMP180;10135;50.702;7.276;2023-07-31T08:21:32;98919.00;;;21.90
19948;BMP180;10135;50.702;7.276;2023-07-31T08:23:32;98924.00;;;21.90
19948;BMP180;10135;50.702;7.276;2023-07-31T08:25:35;98918.00;;;21.90
19948;BMP180;10135;50.702;7.276;2023-07-31T08:27:36;98905.00;;;21.90
19948;BMP180;10135;50.702;7.276;2023-07-31T08:29:37;98913.00;;;21.80
19948;BMP180;10135;50.702;7.276;2023-07-31T08:31:38;98914.00;;;21.80
19948;BMP180;10135;50.702;7.276;2023-07-31T08:33:39;98911.00;;;21.80
19948;BMP180;10135;50.702;7.276;2023-07-31T08:35:40;98908.00;;;21.80
19948;BMP180;10135;50.702;7.276;2023-07-31T08:37:41;98906.00;;;21.80
19948;BMP180;10135;50.702;7.276;2023-07-31T08:39:41;98905.00;;;21.80
19948;BMP180;10135;50.702;7.276;2023-07-31T08:41:42;98901.00;;;21.80
19948;BMP180;10135;50.702;7.276;2023-07-31T08:43:45;98896.00;;;21.80
19948;BMP180;10135;50.702;7.276;2023-07-31T08:45:47;98891.00;;;21.80
19948;BMP180;10135;50.702;7.276;2023-07-31T08:47:51;98888.00;;;21.80
19948;BMP180;10135;50.702;7.276;2023-07-31T08:49:53;98884.00;;;21.80
19948;BMP180;10135;50.702;7.276;2023-07-31T08:51:55;98879.00;;;21.80
19948;BMP180;10135;50.702;7.276;2023-07-31T08:53:58;98870.00;;;21.90
19948;BMP180;10135;50.702;7.276;2023-07-31T08:55:59;98868.00;;;21.90
19948;BMP180;10135;50.702;7.276;2023-07-31T08:58:03;98874.00;;;21.80
19948;BMP180;10135;50.702;7.276;2023-07-31T09:00:06;98871.00;;;21.80
19948;BMP180;10135;50.702;7.276;2023-07-31T09:02:08;98872.00;;;21.80
19948;BMP180;10135;50.702;7.276;2023-07-31T09:04:10;98866.00;;;21.80
19948;BMP180;10135;50.702;7.276;2023-07-31T09:06:15;98873.00;;;21.80
19948;BMP180;10135;50.702;7.276;2023-07-31T09:08:21;98870.00;;;21.80
19948;BMP180;10135;50.702;7.276;2023-07-31T09:10:23;98873.00;;;21.80
19948;BMP180;10135;50.702;7.276;2023-07-31T09:12:25;98878.00;;;21.80
19948;BMP180;10135;50.702;7.276;2023-07-31T09:14:26;98870.00;;;21.80
19948;BMP180;10135;50.702;7.276;2023-07-31T09:16:30;98876.00;;;21.80
19948;BMP180;10135;50.702;7.276;2023-07-31T09:18:53;98878.00;;;21.70
19948;BMP180;10135;50.702;7.276;2023-07-31T09:21:05;98876.00;;;21.80
19948;BMP180;10135;50.702;7.276;2023-07-31T09:23:14;98874.00;;;21.80
19948;BMP180;10135;50.702;7.276;2023-07-31T09:25:24;98868.00;;;21.80
19948;BMP180;10135;50.702;7.276;2023-07-31T09:27:25;98868.00;;;21.80
19948;BMP180;10135;50.702;7.276;2023-07-31T09:29:28;98871.00;;;21.80
19948;BMP180;10135;50.702;7.276;2023-07-31T09:31:40;98875.00;;;21.80
19948;BMP180;10135;50.702;7.276;2023-07-31T09:33:55;98874.00;;;21.70
19948;BMP180;10135;50.702;7.276;2023-07-31T09:35:59;98870.00;;;21.80
19948;BMP180;10135;50.702;7.276;2023-07-31T09:38:06;98876.00;;;21.80
19948;BMP180;10135;50.702;7.276;2023-07-31T09:40:07;98871.00;;;21.80
19948;BMP180;10135;50.702;7.276;2023-07-31T09:42:08;98876.00;;;21.80
19948;BMP180;10135;50.702;7.276;2023-07-31T09:44:09;98864.00;;;21.80
19948;BMP180;10135;50.702;7.276;2023-07-31T09:46:14;98849.00;;;21.80
19948;BMP180;10135;50.702;7.276;2023-07-31T09:48:17;98857.00;;;21.80
19948;BMP180;10135;50.702;7.276;2023-07-31T09:50:21;98850.00;;;21.80
19948;BMP180;10135;50.702;7.276;2023-07-31T09:52:26;98850.00;;;21.80
19948;BMP180;10135;50.702;7.276;2023-07-31T09:54:26;98845.00;;;21.80
19948;BMP180;10135;50.702;7.276;2023-07-31T09:56:27;98845.00;;;21.80
19948;BMP180;10135;50.702;7.276;2023-07-31T09:58:29;98845.00;;;21.90
19948;BMP180;10135;50.702;7.276;2023-07-31T10:00:31;98846.00;;;21.90
19948;BMP180;10135;50.702;7.276;2023-07-31T10:02:32;98839.00;;;21.90
19948;BMP180;10135;50.702;7.276;2023-07-31T10:04:33;98842.00;;;21.90
19948;BMP180;10135;50.702;7.276;2023-07-31T10:06:35;98836.00;;;21.90
19948;BMP180;10135;50.702;7.276;2023-07-31T10:08:37;98835.00;;;22.00
19948;BMP180;10135;50.702;7.276;2023-07-31T10:10:42;98839.00;;;22.00
19948;BMP180;10135;50.702;7.276;2023-07-31T10:12:45;98830.00;;;22.00
19948;BMP180;10135;50.702;7.276;2023-07-31T10:14:47;98816.00;;;22.00
19948;BMP180;10135;50.702;7.276;2023-07-31T10:16:49;98824.00;;;22.00
19948;BMP180;10135;50.702;7.276;2023-07-31T10:18:51;98824.00;;;22.00
19948;BMP180;10135;50.702;7.276;2023-07-31T10:20:54;98822.00;;;22.10
19948;BMP180;10135;50.702;7.276;2023-07-31T10:22:56;98828.00;;;22.10
19948;BMP180;10135;50.702;7.276;2023-07-31T10:24:59;98824.00;;;22.10
19948;BMP180;10135;50.702;7.276;2023-07-31T10:27:01;98826.00;;;22.10
19948;BMP180;10135;50.702;7.276;2023-07-31T10:29:05;98824.00;;;22.10
19948;BMP180;10135;50.702;7.276;2023-07-31T10:31:07;98818.00;;;22.20
19948;BMP180;10135;50.702;7.276;2023-07-31T10:33:08;98812.00;;;22.20
19948;BMP180;10135;50.702;7.276;2023-07-31T10:35:10;98820.00;;;22.20
19948;BMP180;10135;50.702;7.276;2023-07-31T10:37:22;98819.00;;;22.20
19948;BMP180;10135;50.702;7.276;2023-07-31T10:39:37;98824.00;;;22.20
19948;BMP180;10135;50.702;7.276;2023-07-31T10:41:42;98810.00;;;22.30
19948;BMP180;10135;50.702;7.276;2023-07-31T10:49:35;98800.00;;;22.40
19948;BMP180;10135;50.702;7.276;2023-07-31T10:52:20;98799.00;;;22.50
19948;BMP180;10135;50.702;7.276;2023-07-31T10:54:36;98794.00;;;22.60
19948;BMP180;10135;50.702;7.276;2023-07-31T10:57:20;98802.00;;;22.60
19948;BMP180;10135;50.702;7.276;2023-07-31T10:59:38;98807.00;;;22.70
19948;BMP180;10135;50.702;7.276;2023-07-31T11:02:00;98810.00;;;22.80
19948;BMP180;10135;50.702;7.276;2023-07-31T11:04:22;98804.00;;;22.80
19948;BMP180;10135;50.702;7.276;2023-07-31T11:06:37;98801.00;;;22.90
19948;BMP180;10135;50.702;7.276;2023-07-31T11:08:49;98795.00;;;22.90
19948;BMP180;10135;50.702;7.276;2023-07-31T11:11:09;98799.00;;;23.00
19948;BMP180;10135;50.702;7.276;2023-07-31T11:13:16;98796.00;;;23.00
19948;BMP180;10135;50.702;7.276;2023-07-31T11:15:28;98802.00;;;23.00
19948;BMP180;10135;50.702;7.276;2023-07-31T11:17:55;98804.00;;;23.00
19948;BMP180;10135;50.702;7.276;2023-07-31T11:20:39;98809.00;;;23.10
19948;BMP180;10135;50.702;7.276;2023-07-31T11:22:50;98809.00;;;23.10
19948;BMP180;10135;50.702;7.276;2023-07-31T11:24:56;98811.00;;;23.20
19948;BMP180;10135;50.702;7.276;2023-07-31T11:27:16;98799.00;;;23.20
19948;BMP180;10135;50.702;7.276;2023-07-31T11:29:30;98795.00;;;23.20
19948;BMP180;10135;50.702;7.276;2023-07-31T11:32:00;98799.00;;;23.20
19948;BMP180;10135;50.702;7.276;2023-07-31T11:34:07;98796.00;;;23.20
19948;BMP180;10135;50.702;7.276;2023-07-31T11:36:19;98806.00;;;23.30
19948;BMP180;10135;50.702;7.276;2023-07-31T11:38:25;98801.00;;;23.30
19948;BMP180;10135;50.702;7.276;2023-07-31T11:40:31;98799.00;;;23.30
19948;BMP180;10135;50.702;7.276;2023-07-31T11:42:38;98798.00;;;23.30
19948;BMP180;10135;50.702;7.276;2023-07-31T11:44:50;98816.00;;;23.30
19948;BMP180;10135;50.702;7.276;2023-07-31T11:47:00;98816.00;;;23.40
19948;BMP180;10135;50.702;7.276;2023-07-31T11:49:04;98802.00;;;23.40
19948;BMP180;10135;50.702;7.276;2023-07-31T11:51:07;98816.00;;;23.40
19948;BMP180;10135;50.702;7.276;2023-07-31T11:53:09;98818.00;;;23.40
19948;BMP180;10135;50.702;7.276;2023-07-31T11:55:11;98814.00;;;23.40
19948;BMP180;10135;50.702;7.276;2023-07-31T11:57:13;98809.00;;;23.40
19948;BMP180;10135;50.702;7.276;2023-07-31T11:59:14;98800.00;;;23.40
19948;BMP180;10135;50.702;7.276;2023-07-31T12:01:18;98788.00;;;23.40
19948;BMP180;10135;50.702;7.276;2023-07-31T12:03:20;98794.00;;;23.40
19948;BMP180;10135;50.702;7.276;2023-07-31T12:05:22;98785.00;;;23.40
19948;BMP180;10135;50.702;7.276;2023-07-31T12:07:24;98777.00;;;23.40
19948;BMP180;10135;50.702;7.276;2023-07-31T12:09:25;98779.00;;;23.50
19948;BMP180;10135;50.702;7.276;2023-07-31T12:11:27;98774.00;;;23.50
19948;BMP180;10135;50.702;7.276;2023-07-31T12:13:27;98772.00;;;23.60
19948;BMP180;10135;50.702;7.276;2023-07-31T12:15:42;98779.00;;;23.60
19948;BMP180;10135;50.702;7.276;2023-07-31T12:17:47;98761.00;;;23.70
19948;BMP180;10135;50.702;7.276;2023-07-31T12:19:49;98762.00;;;23.80
19948;BMP180;10135;50.702;7.276;2023-07-31T12:21:49;98751.00;;;23.90
19948;BMP180;10135;50.702;7.276;2023-07-31T12:23:51;98756.00;;;24.00
19948;BMP180;10135;50.702;7.276;2023-07-31T12:26:12;98762.00;;;24.00
19948;BMP180;10135;50.702;7.276;2023-07-31T12:28:13;98760.00;;;24.20
19948;BMP180;10135;50.702;7.276;2023-07-31T12:30:33;98760.00;;;24.20
19948;BMP180;10135;50.702;7.276;2023-07-31T12:32:34;98761.00;;;24.30
19948;BMP180;10135;50.702;7.276;2023-07-31T12:34:42;98762.00;;;24.40
19948;BMP180;10135;50.702;7.276;2023-07-31T12:36:44;98771.00;;;24.40
19948;BMP180;10135;50.702;7.276;2023-07-31T12:38:45;98765.00;;;24.40
19948;BMP180;10135;50.702;7.276;2023-07-31T12:40:46;98760.00;;;24.50
19948;BMP180;10135;50.702;7.276;2023-07-31T12:42:47;98760.00;;;24.50
19948;BMP180;10135;50.702;7.276;2023-07-31T12:44:47;98760.00;;;24.50
19948;BMP180;10135;50.702;7.276;2023-07-31T12:46:48;98762.00;;;24.50
19948;BMP180;10135;50.702;7.276;2023-07-31T12:48:49;98762.00;;;24.50
19948;BMP180;10135;50.702;7.276;2023-07-31T12:50:50;98754.00;;;24.50
19948;BMP180;10135;50.702;7.276;2023-07-31T12:52:52;98755.00;;;24.50
19948;BMP180;10135;50.702;7.276;2023-07-31T12:54:53;98752.00;;;24.50
19948;BMP180;10135;50.702;7.276;2023-07-31T12:56:54;98756.00;;;24.40
19948;BMP180;10135;50.702;7.276;2023-07-31T12:58:54;98753.00;;;24.40
19948;BMP180;10135;50.702;7.276;2023-07-31T13:00:55;98752.00;;;24.40
19948;BMP180;10135;50.702;7.276;2023-07-31T13:02:55;98750.00;;;24.40
19948;BMP180;10135;50.702;7.276;2023-07-31T13:04:56;98747.00;;;24.40
19948;BMP180;10135;50.702;7.276;2023-07-31T13:06:57;98753.00;;;24.40
19948;BMP180;10135;50.702;7.276;2023-07-31T13:08:58;98754.00;;;24.40
19948;BMP180;10135;50.702;7.276;2023-07-31T13:10:59;98759.00;;;24.40
19948;BMP180;10135;50.702;7.276;2023-07-31T13:12:59;98752.00;;;24.40
19948;BMP180;10135;50.702;7.276;2023-07-31T13:15:00;98749.00;;;24.40
19948;BMP180;10135;50.702;7.276;2023-07-31T13:17:01;98748.00;;;24.40
19948;BMP180;10135;50.702;7.276;2023-07-31T13:19:01;98745.00;;;24.40
19948;BMP180;10135;50.702;7.276;2023-07-31T13:21:02;98739.00;;;24.40
19948;BMP180;10135;50.702;7.276;2023-07-31T13:23:03;98728.00;;;24.40
19948;BMP180;10135;50.702;7.276;2023-07-31T13:25:04;98722.00;;;24.40
19948;BMP180;10135;50.702;7.276;2023-07-31T13:27:05;98717.00;;;24.30
19948;BMP180;10135;50.702;7.276;2023-07-31T13:29:06;98715.00;;;24.40
19948;BMP180;10135;50.702;7.276;2023-07-31T13:31:07;98715.00;;;24.40
19948;BMP180;10135;50.702;7.276;2023-07-31T13:33:07;98720.00;;;24.40
19948;BMP180;10135;50.702;7.276;2023-07-31T13:35:10;98710.00;;;24.40
19948;BMP180;10135;50.702;7.276;2023-07-31T13:37:12;98717.00;;;24.40
19948;BMP180;10135;50.702;7.276;2023-07-31T13:39:13;98712.00;;;24.40
19948;BMP180;10135;50.702;7.276;2023-07-31T13:41:14;98706.00;;;24.40
19948;BMP180;10135;50.702;7.276;2023-07-31T13:43:14;98700.00;;;24.40
19948;BMP180;10135;50.702;7.276;2023-07-31T13:45:15;98703.00;;;24.40
19948;BMP180;10135;50.702;7.276;2023-07-31T13:47:16;98702.00;;;24.50
19948;BMP180;10135;50.702;7.276;2023-07-31T13:49:16;98698.00;;;24.50
19948;BMP180;10135;50.702;7.276;2023-07-31T13:51:17;98695.00;;;24.50
19948;BMP180;10135;50.702;7.276;2023-07-31T13:53:18;98685.00;;;24.50
19948;BMP180;10135;50.702;7.276;2023-07-31T13:55:18;98690.00;;;24.60
19948;BMP180;10135;50.702;7.276;2023-07-31T13:57:19;98692.00;;;24.60
19948;BMP180;10135;50.702;7.276;2023-07-31T13:59:20;98685.00;;;24.60
19948;BMP180;10135;50.702;7.276;2023-07-31T14:01:20;98691.00;;;24.60
19948;BMP180;10135;50.702;7.276;2023-07-31T14:03:21;98692.00;;;24.60
19948;BMP180;10135;50.702;7.276;2023-07-31T14:05:22;98696.00;;;24.60
19948;BMP180;10135;50.702;7.276;2023-07-31T14:07:22;98706.00;;;24.60
19948;BMP180;10135;50.702;7.276;2023-07-31T14:09:23;98710.00;;;24.60
19948;BMP180;10135;50.702;7.276;2023-07-31T14:11:24;98705.00;;;24.60
19948;BMP180;10135;50.702;7.276;2023-07-31T14:13:24;98699.00;;;24.60
19948;BMP180;10135;50.702;7.276;2023-07-31T14:15:25;98699.00;;;24.60
19948;BMP180;10135;50.702;7.276;2023-07-31T14:17:26;98691.00;;;24.60
19948;BMP180;10135;50.702;7.276;2023-07-31T14:19:26;98686.00;;;24.60
19948;BMP180;10135;50.702;7.276;2023-07-31T14:21:27;98688.00;;;24.60
19948;BMP180;10135;50.702;7.276;2023-07-31T14:23:28;98695.00;;;24.50
19948;BMP180;10135;50.702;7.276;2023-07-31T14:25:28;98704.00;;;24.50
19948;BMP180;10135;50.702;7.276;2023-07-31T14:27:29;98709.00;;;24.50
19948;BMP180;10135;50.702;7.276;2023-07-31T14:29:30;98708.00;;;24.50
19948;BMP180;10135;50.702;7.276;2023-07-31T14:31:31;98715.00;;;24.50
19948;BMP180;10135;50.702;7.276;2023-07-31T14:33:31;98710.00;;;24.40
19948;BMP180;10135;50.702;7.276;2023-07-31T14:35:34;98702.00;;;24.40
19948;BMP180;10135;50.702;7.276;2023-07-31T14:37:44;98712.00;;;24.40
19948;BMP180;10135;50.702;7.276;2023-07-31T14:39:44;98701.00;;;24.40
19948;BMP180;10135;50.702;7.276;2023-07-31T14:41:45;98710.00;;;24.30
19948;BMP180;10135;50.702;7.276;2023-07-31T14:43:46;98710.00;;;24.20
19948;BMP180;10135;50.702;7.276;2023-07-31T14:45:48;98728.00;;;24.20
19948;BMP180;10135;50.702;7.276;2023-07-31T14:47:49;98738.00;;;24.20
19948;BMP180;10135;50.702;7.276;2023-07-31T14:49:50;98732.00;;;24.10
19948;BMP180;10135;50.702;7.276;2023-07-31T14:51:51;98730.00;;;24.10
19948;BMP180;10135;50.702;7.276;2023-07-31T14:53:51;98731.00;;;24.10
19948;BMP180;10135;50.702;7.276;2023-07-31T14:55:52;98733.00;;;24.00
19948;BMP180;10135;50.702;7.276;2023-07-31T14:57:53;98730.00;;;24.00
19948;BMP180;10135;50.702;7.276;2023-07-31T14:59:53;98729.00;;;24.00
19948;BMP180;10135;50.702;7.276;2023-07-31T15:01:54;98731.00;;;24.00
19948;BMP180;10135;50.702;7.276;2023-07-31T15:03:55;98718.00;;;23.90
19948;BMP180;10135;50.702;7.276;2023-07-31T15:05:55;98722.00;;;23.90
19948;BMP180;10135;50.702;7.276;2023-07-31T15:07:56;98718.00;;;23.90
19948;BMP180;10135;50.702;7.276;2023-07-31T15:09:57;98712.00;;;23.90
19948;BMP180;10135;50.702;7.276;2023-07-31T15:11:58;98709.00;;;23.90
19948;BMP180;10135;50.702;7.276;2023-07-31T15:13:58;98712.00;;;23.80
19948;BMP180;10135;50.702;7.276;2023-07-31T15:15:59;98708.00;;;23.80
19948;BMP180;10135;50.702;7.276;2023-07-31T15:18:00;98706.00;;;23.80
19948;BMP180;10135;50.702;7.276;2023-07-31T15:20:01;98697.00;;;23.80
19948;BMP180;10135;50.702;7.276;2023-07-31T15:22:03;98700.00;;;23.70
19948;BMP180;10135;50.702;7.276;2023-07-31T15:24:04;98693.00;;;23.70
19948;BMP180;10135;50.702;7.276;2023-07-31T15:26:04;98692.00;;;23.70
19948;BMP180;10135;50.702;7.276;2023-07-31T15:28:05;98688.00;;;23.70
19948;BMP180;10135;50.702;7.276;2023-07-31T15:30:08;98684.00;;;23.70
19948;BMP180;10135;50.702;7.276;2023-07-31T15:32:09;98684.00;;;23.70
19948;BMP180;10135;50.702;7.276;2023-07-31T15:34:10;98681.00;;;23.70
19948;BMP180;10135;50.702;7.276;2023-07-31T15:36:10;98671.00;;;23.70
19948;BMP180;10135;50.702;7.276;2023-07-31T15:38:11;98667.00;;;23.70
19948;BMP180;10135;50.702;7.276;2023-07-31T15:40:12;98662.00;;;23.70
19948;BMP180;10135;50.702;7.276;2023-07-31T15:42:12;98653.00;;;23.70
19948;BMP180;10135;50.702;7.276;2023-07-31T15:44:13;98644.00;;;23.70
19948;BMP180;10135;50.702;7.276;2023-07-31T15:46:14;98642.00;;;23.70
19948;BMP180;10135;50.702;7.276;2023-07-31T15:48:14;98643.00;;;23.70
19948;BMP180;10135;50.702;7.276;2023-07-31T15:50:15;98644.00;;;23.70
19948;BMP180;10135;50.702;7.276;2023-07-31T15:52:16;98644.00;;;23.80
19948;BMP180;10135;50.702;7.276;2023-07-31T15:54:16;98643.00;;;23.80
19948;BMP180;10135;50.702;7.276;2023-07-31T15:56:19;98636.00;;;23.80
19948;BMP180;10135;50.702;7.276;2023-07-31T15:58:19;98636.00;;;23.80
19948;BMP180;10135;50.702;7.276;2023-07-31T16:00:20;98638.00;;;23.80
19948;BMP180;10135;50.702;7.276;2023-07-31T16:02:21;98635.00;;;23.80
19948;BMP180;10135;50.702;7.276;2023-07-31T16:04:21;98628.00;;;23.80
19948;BMP180;10135;50.702;7.276;2023-07-31T16:06:22;98621.00;;;23.80
19948;BMP180;10135;50.702;7.276;2023-07-31T16:08:23;98635.00;;;23.70
19948;BMP180;10135;50.702;7.276;2023-07-31T16:10:23;98635.00;;;23.70
19948;BMP180;10135;50.702;7.276;2023-07-31T16:12:24;98640.00;;;23.70
19948;BMP180;10135;50.702;7.276;2023-07-31T16:14:25;98636.00;;;23.70
19948;BMP180;10135;50.702;7.276;2023-07-31T16:16:25;98627.00;;;23.70
19948;BMP180;10135;50.702;7.276;2023-07-31T16:18:27;98620.00;;;23.70
19948;BMP180;10135;50.702;7.276;2023-07-31T16:20:29;98617.00;;;23.70
19948;BMP180;10135;50.702;7.276;2023-07-31T16:22:30;98626.00;;;23.70
19948;BMP180;10135;50.702;7.276;2023-07-31T16:24:30;98629.00;;;23.70
19948;BMP180;10135;50.702;7.276;2023-07-31T16:26:31;98625.00;;;23.60
19948;BMP180;10135;50.702;7.276;2023-07-31T16:28:33;98630.00;;;23.60
19948;BMP180;10135;50.702;7.276;2023-07-31T16:30:35;98617.00;;;23.60
19948;BMP180;10135;50.702;7.276;2023-07-31T16:32:36;98615.00;;;23.50
19948;BMP180;10135;50.702;7.276;2023-07-31T16:34:37;98622.00;;;23.50
19948;BMP180;10135;50.702;7.276;2023-07-31T16:36:37;98625.00;;;23.40
19948;BMP180;10135;50.702;7.276;2023-07-31T16:38:38;98634.00;;;23.40
19948;BMP180;10135;50.702;7.276;2023-07-31T16:40:39;98624.00;;;23.30
19948;BMP180;10135;50.702;7.276;2023-07-31T16:42:39;98622.00;;;23.20
19948;BMP180;10135;50.702;7.276;2023-07-31T16:44:41;98612.00;;;23.20
19948;BMP180;10135;50.702;7.276;2023-07-31T16:46:41;98618.00;;;23.10
19948;BMP180;10135;50.702;7.276;2023-07-31T16:48:42;98612.00;;;23.00
19948;BMP180;10135;50.702;7.276;2023-07-31T16:50:43;98598.00;;;23.00
19948;BMP180;10135;50.702;7.276;2023-07-31T16:52:43;98590.00;;;22.90
19948;BMP180;10135;50.702;7.276;2023-07-31T16:54:44;98581.00;;;22.90
19948;BMP180;10135;50.702;7.276;2023-07-31T16:56:45;98579.00;;;22.80
19948;BMP180;10135;50.702;7.276;2023-07-31T16:58:48;98578.00;;;22.80